createdAt,value
2019-01-30T00:00:58.112Z,100068.30
2019-01-30T00:01:59.224Z,100068.47
2019-01-30T00:03:00.401Z,100066.96
2019-01-30T00:04:01.657Z,100069.29
2019-01-30T00:05:05.580Z,100073.80
2019-01-30T00:06:06.793Z,100072.47
2019-01-30T00:07:08.045Z,100079.15
2019-01-30T00:08:09.209Z,100082.30
2019-01-30T00:09:10.324Z,100076.14
2019-01-30T00:10:11.648Z,100076.62
2019-01-30T00:11:12.760Z,100071.79
2019-01-30T00:12:13.868Z,100082.47
2019-01-30T00:13:15.081Z,100086.10
2019-01-30T00:14:16.193Z,100089.28
2019-01-30T00:15:17.317Z,100087.95
2019-01-30T00:16:18.426Z,100089.28
2019-01-30T00:17:19.537Z,100093.77
2019-01-30T00:18:20.753Z,100091.61
2019-01-30T00:19:21.864Z,100089.77
2019-01-30T00:20:22.996Z,100084.94
2019-01-30T00:21:24.113Z,100084.42
2019-01-30T00:22:25.232Z,100091.95
2019-01-30T00:23:26.447Z,100087.61
2019-01-30T00:24:27.759Z,100092.44
2019-01-30T00:25:29.072Z,100089.94
2019-01-30T00:26:30.289Z,100087.75
2019-01-30T00:27:31.404Z,100085.94
2019-01-30T00:28:32.523Z,100093.09
2019-01-30T00:29:33.636Z,100094.08
2019-01-30T00:30:34.761Z,100095.76
2019-01-30T00:31:35.876Z,100098.94
2019-01-30T00:32:36.991Z,100099.94
2019-01-30T00:33:38.109Z,100094.08
2019-01-30T00:34:39.220Z,100093.27
2019-01-30T00:35:40.472Z,100092.92
2019-01-30T00:36:41.584Z,100095.59
2019-01-30T00:37:42.697Z,100093.91
2019-01-30T00:38:43.815Z,100096.92
2019-01-30T00:39:44.926Z,100095.25
2019-01-30T00:40:46.054Z,100097.92
2019-01-30T00:41:47.169Z,100103.73
2019-01-30T00:42:48.276Z,100100.59
2019-01-30T00:43:49.385Z,100098.91
2019-01-30T00:44:50.506Z,100102.06
2019-01-30T00:45:51.756Z,100110.41
2019-01-30T00:46:52.873Z,100103.39
2019-01-30T00:47:53.980Z,100105.08
2019-01-30T00:48:55.096Z,100106.92
2019-01-30T00:49:56.315Z,100104.73
2019-01-30T00:50:57.440Z,100113.59
2019-01-30T00:51:58.652Z,100103.91
2019-01-30T00:52:59.773Z,100101.23
2019-01-30T00:54:00.886Z,100105.24
2019-01-30T00:55:02.724Z,100107.40
2019-01-30T00:56:04.006Z,100101.23
2019-01-30T00:57:05.420Z,100105.72
2019-01-30T00:58:06.532Z,100105.38
2019-01-30T00:59:07.739Z,100107.06
2019-01-30T01:00:18.507Z,100102.23
2019-01-30T01:01:19.633Z,100106.23
2019-01-30T01:02:20.740Z,100102.72
2019-01-30T01:03:21.953Z,100106.23
2019-01-30T01:04:23.159Z,100108.39
2019-01-30T01:05:24.371Z,100106.23
2019-01-30T01:06:25.488Z,100103.23
2019-01-30T01:07:26.740Z,100105.38
2019-01-30T01:08:28.452Z,100107.58
2019-01-30T01:09:29.668Z,100104.91
2019-01-30T01:10:30.880Z,100107.58
2019-01-30T01:11:32.306Z,100111.58
2019-01-30T01:12:33.421Z,100109.39
2019-01-30T01:13:34.537Z,100106.38
2019-01-30T01:14:35.648Z,100115.23
2019-01-30T01:15:36.764Z,100112.05
2019-01-30T01:16:37.999Z,100123.25
2019-01-30T01:17:39.209Z,100127.59
2019-01-30T01:18:40.326Z,100119.24
2019-01-30T01:19:41.440Z,100121.73
2019-01-30T01:20:42.552Z,100116.06
2019-01-30T01:21:43.784Z,100122.25
2019-01-30T01:22:44.997Z,100120.58
2019-01-30T01:23:46.110Z,100122.39
2019-01-30T01:24:47.220Z,100121.06
2019-01-30T01:25:48.333Z,100122.73
2019-01-30T01:26:49.460Z,100123.59
2019-01-30T01:27:50.585Z,100121.91
2019-01-30T01:28:51.693Z,100121.57
2019-01-30T01:29:52.908Z,100125.58
2019-01-30T01:30:54.015Z,100118.05
2019-01-30T01:31:55.139Z,100126.39
2019-01-30T01:32:56.246Z,100123.73
2019-01-30T01:33:57.361Z,100122.05
2019-01-30T01:34:58.471Z,100121.57
2019-01-30T01:35:59.587Z,100122.91
2019-01-30T01:37:00.816Z,100125.58
2019-01-30T01:38:02.025Z,100127.91
2019-01-30T01:39:05.538Z,100127.39
2019-01-30T01:40:09.951Z,100128.89
2019-01-30T01:41:11.168Z,100129.72
2019-01-30T01:42:12.299Z,100130.71
2019-01-30T01:43:13.512Z,100133.38
2019-01-30T01:44:14.629Z,100131.70
2019-01-30T01:45:21.525Z,100136.56
2019-01-30T01:46:22.626Z,100134.55
2019-01-30T01:47:23.749Z,100138.89
2019-01-30T01:48:24.860Z,100136.36
2019-01-30T01:49:25.971Z,100148.23
2019-01-30T01:50:27.187Z,100141.70
2019-01-30T01:51:28.295Z,100139.03
2019-01-30T01:52:29.516Z,100142.55
2019-01-30T01:53:30.660Z,100148.87
2019-01-30T01:54:31.781Z,100147.55
2019-01-30T01:55:32.891Z,100148.02
2019-01-30T01:56:34.114Z,100148.87
2019-01-30T01:57:35.264Z,100147.20
2019-01-30T01:58:36.380Z,100145.87
2019-01-30T01:59:37.502Z,100150.22
2019-01-30T02:00:38.709Z,100149.36
2019-01-30T02:01:39.828Z,100152.54
2019-01-30T02:02:41.052Z,100154.56
2019-01-30T02:03:42.164Z,100154.56
2019-01-30T02:04:43.289Z,100155.55
2019-01-30T02:05:44.392Z,100154.56
2019-01-30T02:06:45.504Z,100158.05
2019-01-30T02:07:46.736Z,100160.23
2019-01-30T02:08:47.864Z,100159.05
2019-01-30T02:09:48.990Z,100165.23
2019-01-30T02:10:50.098Z,100158.91
2019-01-30T02:11:51.212Z,100158.05
2019-01-30T02:12:52.337Z,100154.56
2019-01-30T02:13:53.452Z,100151.03
2019-01-30T02:14:54.573Z,100159.90
2019-01-30T02:15:55.690Z,100158.91
2019-01-30T02:16:56.893Z,100157.23
2019-01-30T02:17:58.057Z,100161.23
2019-01-30T02:18:59.173Z,100160.55
2019-01-30T02:20:00.324Z,100162.22
2019-01-30T02:21:01.468Z,100162.70
2019-01-30T02:22:02.775Z,100161.88
2019-01-30T02:23:04.006Z,100159.21
2019-01-30T02:24:05.112Z,100167.36
2019-01-30T02:25:09.024Z,100159.86
2019-01-30T02:26:10.242Z,100167.02
2019-01-30T02:27:11.354Z,100171.50
2019-01-30T02:28:12.590Z,100168.83
2019-01-30T02:29:13.703Z,100172.83
2019-01-30T02:30:19.829Z,100170.33
2019-01-30T02:31:21.044Z,100165.81
2019-01-30T02:32:22.161Z,100157.47
2019-01-30T02:33:23.396Z,100173.48
2019-01-30T02:34:24.529Z,100169.64
2019-01-30T02:35:25.623Z,100173.30
2019-01-30T02:36:26.735Z,100173.65
2019-01-30T02:37:27.855Z,100172.45
2019-01-30T02:38:29.007Z,100175.13
2019-01-30T02:39:30.132Z,100170.77
2019-01-30T02:40:31.244Z,100179.77
2019-01-30T02:41:32.360Z,100173.95
2019-01-30T02:42:33.472Z,100179.77
2019-01-30T02:43:34.601Z,100179.30
2019-01-30T02:44:35.713Z,100179.77
2019-01-30T02:45:36.936Z,100180.63
2019-01-30T02:46:38.051Z,100181.11
2019-01-30T02:47:39.264Z,100179.77
2019-01-30T02:48:40.428Z,100181.11
2019-01-30T02:49:41.542Z,100181.62
2019-01-30T02:50:42.654Z,100183.77
2019-01-30T02:51:43.772Z,100182.61
2019-01-30T02:52:45.180Z,100182.95
2019-01-30T02:53:46.312Z,100181.28
2019-01-30T02:54:47.428Z,100184.42
2019-01-30T02:55:48.544Z,100183.09
2019-01-30T02:56:49.670Z,100184.42
2019-01-30T02:57:50.881Z,100182.40
2019-01-30T02:58:52.008Z,100186.75
2019-01-30T02:59:53.127Z,100189.41
2019-01-30T03:00:59.297Z,100188.42
2019-01-30T03:01:58.463Z,100185.75
2019-01-30T03:02:59.570Z,100187.09
2019-01-30T03:04:00.724Z,100182.74
2019-01-30T03:05:02.042Z,100189.41
2019-01-30T03:06:03.667Z,100189.41
2019-01-30T03:07:04.778Z,100186.91
2019-01-30T03:08:06.016Z,100185.92
2019-01-30T03:09:07.734Z,100190.75
2019-01-30T03:10:14.328Z,100190.75
2019-01-30T03:11:15.548Z,100186.75
2019-01-30T03:12:16.662Z,100194.75
2019-01-30T03:13:17.896Z,100189.41
2019-01-30T03:14:19.040Z,100192.08
2019-01-30T03:15:21.055Z,100190.75
2019-01-30T03:16:23.373Z,100195.27
2019-01-30T03:17:24.584Z,100194.27
2019-01-30T03:18:25.801Z,100188.42
2019-01-30T03:19:27.036Z,100191.61
2019-01-30T03:20:28.448Z,100187.43
2019-01-30T03:21:29.566Z,100191.95
2019-01-30T03:22:30.680Z,100190.61
2019-01-30T03:23:31.792Z,100191.44
2019-01-30T03:24:32.940Z,100199.44
2019-01-30T03:25:34.051Z,100194.11
2019-01-30T03:26:35.160Z,100195.09
2019-01-30T03:27:36.276Z,100202.11
2019-01-30T03:28:37.407Z,100207.10
2019-01-30T03:29:38.689Z,100206.28
2019-01-30T03:30:39.896Z,100207.96
2019-01-30T03:31:41.027Z,100207.10
2019-01-30T03:32:42.145Z,100208.95
2019-01-30T03:33:43.353Z,100207.75
2019-01-30T03:34:44.813Z,100212.09
2019-01-30T03:35:45.971Z,100209.94
2019-01-30T03:36:47.083Z,100206.41
2019-01-30T03:37:48.205Z,100211.75
2019-01-30T03:38:49.325Z,100209.09
2019-01-30T03:39:50.450Z,100208.74
2019-01-30T03:40:51.548Z,100201.59
2019-01-30T03:41:52.674Z,100206.59
2019-01-30T03:42:53.888Z,100201.73
2019-01-30T03:43:54.995Z,100204.39
2019-01-30T03:44:56.126Z,100210.59
2019-01-30T03:45:57.240Z,100208.91
2019-01-30T03:46:58.437Z,100200.05
2019-01-30T03:47:59.569Z,100208.91
2019-01-30T03:49:00.787Z,100209.73
2019-01-30T03:50:03.109Z,100215.06
2019-01-30T03:51:04.221Z,100210.24
2019-01-30T03:52:05.443Z,100210.24
2019-01-30T03:53:06.561Z,100215.58
2019-01-30T03:54:07.868Z,100214.25
2019-01-30T03:55:11.600Z,100211.23
2019-01-30T03:56:12.813Z,100216.06
2019-01-30T03:57:14.426Z,100213.05
2019-01-30T03:58:15.540Z,100212.56
2019-01-30T03:59:17.603Z,100219.72
2019-01-30T04:00:24.934Z,100209.65
2019-01-30T04:01:27.004Z,100217.56
2019-01-30T04:02:28.264Z,100221.05
2019-01-30T04:03:29.377Z,100219.72
2019-01-30T04:04:30.490Z,100219.38
2019-01-30T04:05:31.718Z,100224.71
2019-01-30T04:06:32.827Z,100223.37
2019-01-30T04:07:34.054Z,100220.70
2019-01-30T04:08:35.184Z,100223.37
2019-01-30T04:09:36.309Z,100224.71
2019-01-30T04:10:37.538Z,100226.04
2019-01-30T04:11:38.649Z,100232.71
2019-01-30T04:12:39.757Z,100226.04
2019-01-30T04:13:40.877Z,100227.72
2019-01-30T04:14:42.014Z,100230.05
2019-01-30T04:15:43.220Z,100231.72
2019-01-30T04:16:44.332Z,100227.72
2019-01-30T04:17:45.510Z,100230.39
2019-01-30T04:18:46.671Z,100227.37
2019-01-30T04:19:47.784Z,100228.58
2019-01-30T04:20:48.908Z,100229.56
2019-01-30T04:21:50.056Z,100223.72
2019-01-30T04:22:51.150Z,100225.05
2019-01-30T04:23:52.263Z,100223.23
2019-01-30T04:24:53.376Z,100221.05
2019-01-30T04:25:54.531Z,100229.40
2019-01-30T04:26:55.649Z,100231.25
2019-01-30T04:27:56.765Z,100231.38
2019-01-30T04:28:57.883Z,100229.56
2019-01-30T04:29:59.102Z,100230.05
2019-01-30T04:31:00.329Z,100229.91
2019-01-30T04:32:01.448Z,100230.39
2019-01-30T04:33:02.758Z,100229.91
2019-01-30T04:34:03.968Z,100232.06
2019-01-30T04:35:05.575Z,100237.41
2019-01-30T04:36:06.804Z,100233.41
2019-01-30T04:37:07.912Z,100234.73
2019-01-30T04:38:09.024Z,100237.91
2019-01-30T04:39:10.140Z,100240.93
2019-01-30T04:40:13.852Z,100243.09
2019-01-30T04:41:15.009Z,100240.07
2019-01-30T04:42:16.120Z,100238.73
2019-01-30T04:43:17.336Z,100234.26
2019-01-30T04:44:18.448Z,100237.27
2019-01-30T04:45:24.029Z,100234.26
2019-01-30T04:46:25.257Z,100240.93
2019-01-30T04:47:26.381Z,100234.73
2019-01-30T04:48:27.582Z,100233.05
2019-01-30T04:49:28.711Z,100238.27
2019-01-30T04:50:29.820Z,100244.08
2019-01-30T04:51:30.946Z,100238.39
2019-01-30T04:52:32.057Z,100239.38
2019-01-30T04:53:33.279Z,100236.23
2019-01-30T04:54:34.413Z,100236.72
2019-01-30T04:55:35.510Z,100250.56
2019-01-30T04:56:36.666Z,100245.71
2019-01-30T04:57:37.775Z,100244.37
2019-01-30T04:58:38.992Z,100239.04
2019-01-30T04:59:40.111Z,100247.55
2019-01-30T05:00:41.222Z,100244.54
2019-01-30T05:01:49.482Z,100237.88
2019-01-30T05:02:45.400Z,100241.02
2019-01-30T05:03:46.517Z,100241.88
2019-01-30T05:04:47.628Z,100242.86
2019-01-30T05:05:48.741Z,100242.35
2019-01-30T05:06:49.991Z,100239.69
2019-01-30T05:07:51.115Z,100249.37
2019-01-30T05:08:52.253Z,100247.21
2019-01-30T05:09:53.381Z,100251.55
2019-01-30T05:10:54.502Z,100261.23
2019-01-30T05:11:55.629Z,100261.72
2019-01-30T05:12:56.751Z,100252.38
2019-01-30T05:13:57.865Z,100248.24
2019-01-30T05:14:58.986Z,100248.72
2019-01-30T05:16:00.157Z,100249.06
2019-01-30T05:17:01.289Z,100240.72
2019-01-30T05:18:02.401Z,100251.73
2019-01-30T05:19:03.616Z,100245.58
2019-01-30T05:20:09.822Z,100243.89
2019-01-30T05:21:11.176Z,100247.05
2019-01-30T05:22:12.389Z,100251.05
2019-01-30T05:23:13.501Z,100254.70
2019-01-30T05:24:14.617Z,100263.05
2019-01-30T05:25:15.749Z,100261.72
2019-01-30T05:26:16.841Z,100256.55
2019-01-30T05:27:17.988Z,100256.55
2019-01-30T05:28:19.110Z,100262.88
2019-01-30T05:29:20.328Z,100261.88
2019-01-30T05:30:30.437Z,100255.34
2019-01-30T05:31:31.552Z,100260.55
2019-01-30T05:32:32.682Z,100258.36
2019-01-30T05:33:33.792Z,100254.88
2019-01-30T05:34:34.912Z,100258.88
2019-01-30T05:35:36.033Z,100261.67
2019-01-30T05:36:37.145Z,100265.67
2019-01-30T05:37:38.274Z,100259.99
2019-01-30T05:38:39.494Z,100269.81
2019-01-30T05:39:40.620Z,100266.80
2019-01-30T05:40:41.735Z,100270.32
2019-01-30T05:41:42.843Z,100269.98
2019-01-30T05:42:43.974Z,100274.80
2019-01-30T05:43:45.085Z,100269.59
2019-01-30T05:44:46.221Z,100272.75
2019-01-30T05:45:47.344Z,100273.25
2019-01-30T05:46:48.448Z,100274.59
2019-01-30T05:47:49.583Z,100270.59
2019-01-30T05:48:50.697Z,100277.26
2019-01-30T05:49:51.807Z,100276.56
2019-01-30T05:50:52.941Z,100276.91
2019-01-30T05:51:54.043Z,100275.23
2019-01-30T05:52:55.168Z,100277.90
2019-01-30T05:53:56.280Z,100274.72
2019-01-30T05:54:57.392Z,100275.23
2019-01-30T05:55:58.511Z,100278.72
2019-01-30T05:56:59.628Z,100277.90
2019-01-30T05:58:00.757Z,100282.25
2019-01-30T05:59:01.869Z,100278.24
2019-01-30T06:00:06.689Z,100275.23
2019-01-30T06:01:07.906Z,100279.58
2019-01-30T06:02:12.051Z,100277.39
2019-01-30T06:03:12.148Z,100280.05
2019-01-30T06:04:13.361Z,100288.06
2019-01-30T06:05:14.472Z,100295.08
2019-01-30T06:06:15.612Z,100298.25
2019-01-30T06:07:16.708Z,100296.41
2019-01-30T06:08:17.852Z,100303.94
2019-01-30T06:09:18.984Z,100305.00
2019-01-30T06:10:20.212Z,100302.34
2019-01-30T06:11:21.329Z,100295.02
2019-01-30T06:12:22.541Z,100298.37
2019-01-30T06:13:23.669Z,100292.75
2019-01-30T06:14:24.788Z,100293.44
2019-01-30T06:15:25.901Z,100289.14
2019-01-30T06:16:27.013Z,100294.52
2019-01-30T06:17:28.128Z,100300.75
2019-01-30T06:18:29.252Z,100293.78
2019-01-30T06:19:30.363Z,100289.83
2019-01-30T06:20:31.476Z,100290.86
2019-01-30T06:21:32.583Z,100298.77
2019-01-30T06:22:33.696Z,100289.61
2019-01-30T06:23:34.829Z,100293.66
2019-01-30T06:24:35.937Z,100293.21
2019-01-30T06:25:37.046Z,100291.78
2019-01-30T06:26:38.361Z,100294.49
2019-01-30T06:27:39.469Z,100294.19
2019-01-30T06:28:40.599Z,100295.39
2019-01-30T06:29:41.709Z,100295.46
2019-01-30T06:30:42.919Z,100293.65
2019-01-30T06:31:44.131Z,100294.88
2019-01-30T06:32:45.339Z,100294.41
2019-01-30T06:33:46.481Z,100292.28
2019-01-30T06:34:47.602Z,100289.16
2019-01-30T06:35:48.815Z,100286.01
2019-01-30T06:36:49.930Z,100286.76
2019-01-30T06:37:51.140Z,100283.30
2019-01-30T06:38:52.267Z,100292.67
2019-01-30T06:39:53.385Z,100289.55
2019-01-30T06:40:54.492Z,100293.08
2019-01-30T06:41:55.607Z,100292.62
2019-01-30T06:42:56.727Z,100290.31
2019-01-30T06:43:57.857Z,100287.53
2019-01-30T06:44:58.978Z,100284.88
2019-01-30T06:46:00.197Z,100294.75
2019-01-30T06:47:01.356Z,100285.08
2019-01-30T06:48:03.311Z,100290.78
2019-01-30T06:49:04.444Z,100290.64
2019-01-30T06:50:10.918Z,100296.87
2019-01-30T06:51:12.031Z,100300.56
2019-01-30T06:52:13.144Z,100298.91
2019-01-30T06:53:17.562Z,100302.60
2019-01-30T06:54:18.686Z,100305.96
2019-01-30T06:55:19.791Z,100308.31
2019-01-30T06:56:21.008Z,100311.67
2019-01-30T06:57:22.128Z,100312.83
2019-01-30T06:58:23.242Z,100314.37
2019-01-30T06:59:24.375Z,100311.55
2019-01-30T07:00:25.884Z,100314.91
2019-01-30T07:01:26.992Z,100314.72
2019-01-30T07:02:32.262Z,100321.61
2019-01-30T07:03:31.124Z,100319.94
2019-01-30T07:04:32.256Z,100316.74
2019-01-30T07:05:33.478Z,100325.97
2019-01-30T07:06:34.591Z,100330.80
2019-01-30T07:07:35.707Z,100327.64
2019-01-30T07:08:36.833Z,100331.66
2019-01-30T07:09:38.097Z,100337.01
2019-01-30T07:10:39.224Z,100332.48
2019-01-30T07:11:40.334Z,100334.67
2019-01-30T07:12:41.439Z,100334.33
2019-01-30T07:13:42.552Z,100339.50
2019-01-30T07:14:43.710Z,100340.36
2019-01-30T07:15:44.820Z,100340.50
2019-01-30T07:16:46.034Z,100332.48
2019-01-30T07:17:47.244Z,100342.84
2019-01-30T07:18:48.360Z,100341.50
2019-01-30T07:19:49.479Z,100341.68
2019-01-30T07:20:50.595Z,100344.84
2019-01-30T07:21:51.704Z,100347.17
2019-01-30T07:22:53.012Z,100346.84
2019-01-30T07:23:54.369Z,100350.84
2019-01-30T07:24:55.492Z,100349.17
2019-01-30T07:25:56.646Z,100347.16
2019-01-30T07:26:57.837Z,100363.55
2019-01-30T07:27:59.044Z,100358.52
2019-01-30T07:29:00.161Z,100367.20
2019-01-30T07:30:01.385Z,100364.32
2019-01-30T07:31:02.606Z,100363.16
2019-01-30T07:32:03.712Z,100368.98
2019-01-30T07:33:05.027Z,100368.30
2019-01-30T07:34:06.137Z,100361.80
2019-01-30T07:35:08.160Z,100371.50
2019-01-30T07:36:09.278Z,100372.50
2019-01-30T07:37:10.492Z,100372.50
2019-01-30T07:38:11.612Z,100372.50
2019-01-30T07:39:12.736Z,100370.81
2019-01-30T07:40:14.960Z,100371.81
2019-01-30T07:41:16.072Z,100370.48
2019-01-30T07:42:17.288Z,100366.13
2019-01-30T07:43:18.405Z,100369.14
2019-01-30T07:44:19.522Z,100369.48
2019-01-30T07:45:25.061Z,100360.25
2019-01-30T07:46:26.176Z,100373.15
2019-01-30T07:47:27.293Z,100373.15
2019-01-30T07:48:29.056Z,100374.97
2019-01-30T07:49:30.325Z,100375.48
2019-01-30T07:50:31.551Z,100376.82
2019-01-30T07:51:32.760Z,100372.95
2019-01-30T07:52:33.869Z,100383.17
2019-01-30T07:53:34.986Z,100377.48
2019-01-30T07:54:36.106Z,100375.80
2019-01-30T07:55:37.228Z,100379.81
2019-01-30T07:56:38.339Z,100379.81
2019-01-30T07:57:39.863Z,100380.80
2019-01-30T07:58:40.972Z,100387.49
2019-01-30T07:59:42.085Z,100386.16
2019-01-30T08:00:43.265Z,100391.64
2019-01-30T08:01:44.326Z,100389.83
2019-01-30T08:02:52.979Z,100391.81
2019-01-30T08:03:48.464Z,100391.81
2019-01-30T08:04:49.676Z,100395.83
2019-01-30T08:05:50.925Z,100400.84
2019-01-30T08:06:52.049Z,100400.49
2019-01-30T08:07:53.476Z,100404.51
2019-01-30T08:08:54.597Z,100405.33
2019-01-30T08:09:55.739Z,100403.65
2019-01-30T08:10:56.981Z,100404.16
2019-01-30T08:11:58.172Z,100413.53
2019-01-30T08:12:59.380Z,100407.66
2019-01-30T08:14:02.005Z,100409.52
2019-01-30T08:15:06.908Z,100416.03
2019-01-30T08:16:08.055Z,100414.34
2019-01-30T08:17:09.164Z,100412.67
2019-01-30T08:18:10.280Z,100416.03
2019-01-30T08:19:11.389Z,100412.67
2019-01-30T08:20:15.311Z,100412.19
2019-01-30T08:21:16.432Z,100421.04
2019-01-30T08:22:17.543Z,100417.36
2019-01-30T08:23:18.801Z,100418.36
2019-01-30T08:24:20.288Z,100419.56
2019-01-30T08:25:21.987Z,100423.06
2019-01-30T08:26:25.566Z,100424.91
2019-01-30T08:27:26.198Z,100429.61
2019-01-30T08:28:27.542Z,100429.27
2019-01-30T08:29:29.049Z,100424.25
2019-01-30T08:30:30.792Z,100422.92
2019-01-30T08:31:32.196Z,100432.11
2019-01-30T08:32:33.728Z,100424.73
2019-01-30T08:33:34.930Z,100428.75
2019-01-30T08:34:36.144Z,100429.27
2019-01-30T08:35:37.352Z,100430.94
2019-01-30T08:36:38.562Z,100431.94
2019-01-30T08:37:39.773Z,100438.45
2019-01-30T08:38:40.988Z,100438.45
2019-01-30T08:39:42.103Z,100437.97
2019-01-30T08:40:43.219Z,100441.98
2019-01-30T08:41:44.344Z,100436.64
2019-01-30T08:42:45.451Z,100447.34
2019-01-30T08:43:46.560Z,100452.17
2019-01-30T08:44:47.780Z,100454.36
2019-01-30T08:45:48.893Z,100448.16
2019-01-30T08:46:50.015Z,100460.53
2019-01-30T08:47:51.233Z,100457.04
2019-01-30T08:48:52.357Z,100454.02
2019-01-30T08:49:53.469Z,100460.19
2019-01-30T08:50:54.611Z,100458.38
2019-01-30T08:51:55.737Z,100456.52
2019-01-30T08:52:56.848Z,100464.06
2019-01-30T08:53:58.066Z,100461.39
2019-01-30T08:54:59.179Z,100471.75
2019-01-30T08:56:00.304Z,100465.06
2019-01-30T08:57:05.136Z,100470.06
2019-01-30T08:58:06.340Z,100470.89
2019-01-30T08:59:07.457Z,100472.06
2019-01-30T09:00:11.976Z,100467.70
2019-01-30T09:01:13.084Z,100464.34
2019-01-30T09:02:14.207Z,100463.48
2019-01-30T09:03:15.327Z,100466.64
2019-01-30T09:04:16.440Z,100464.48
2019-01-30T09:05:17.546Z,100463.63
2019-01-30T09:06:18.759Z,100467.98
2019-01-30T09:07:19.986Z,100466.64
2019-01-30T09:08:21.110Z,100463.48
2019-01-30T09:09:22.224Z,100473.33
2019-01-30T09:10:25.162Z,100466.50
2019-01-30T09:11:26.280Z,100468.70
2019-01-30T09:12:27.512Z,100468.70
2019-01-30T09:13:28.624Z,100471.03
2019-01-30T09:14:29.740Z,100471.37
2019-01-30T09:15:30.863Z,100470.03
2019-01-30T09:16:31.982Z,100475.39
2019-01-30T09:17:33.108Z,100481.73
2019-01-30T09:18:34.316Z,100475.39
2019-01-30T09:19:35.436Z,100479.73
2019-01-30T09:20:36.651Z,100480.56
2019-01-30T09:21:37.764Z,100478.06
2019-01-30T09:22:38.889Z,100479.22
2019-01-30T09:23:40.004Z,100485.09
2019-01-30T09:24:41.123Z,100485.57
2019-01-30T09:25:42.239Z,100490.44
2019-01-30T09:26:43.356Z,100485.09
2019-01-30T09:27:45.116Z,100490.78
2019-01-30T09:28:46.232Z,100493.94
2019-01-30T09:29:47.347Z,100495.79
2019-01-30T09:30:48.459Z,100499.28
2019-01-30T09:31:49.639Z,100502.47
2019-01-30T09:32:50.918Z,100495.79
2019-01-30T09:33:52.015Z,100500.14
2019-01-30T09:34:53.137Z,100502.47
2019-01-30T09:35:54.339Z,100503.64
2019-01-30T09:36:55.447Z,100504.98
2019-01-30T09:37:56.573Z,100499.62
2019-01-30T09:38:57.687Z,100498.46
2019-01-30T09:39:58.803Z,100492.12
2019-01-30T09:40:59.919Z,100490.78
2019-01-30T09:42:01.028Z,100498.46
2019-01-30T09:43:02.153Z,100488.76
2019-01-30T09:44:03.288Z,100499.80
2019-01-30T09:45:09.924Z,100498.94
2019-01-30T09:46:10.992Z,100499.80
2019-01-30T09:47:12.108Z,100498.46
2019-01-30T09:48:13.244Z,100506.48
2019-01-30T09:49:14.410Z,100505.63
2019-01-30T09:50:21.527Z,100508.16
2019-01-30T09:51:22.639Z,100504.98
2019-01-30T09:52:26.838Z,100506.31
2019-01-30T09:53:26.909Z,100505.49
2019-01-30T09:54:28.005Z,100509.50
2019-01-30T09:55:29.112Z,100507.66
2019-01-30T09:56:30.232Z,100506.83
2019-01-30T09:57:31.348Z,100516.19
2019-01-30T09:58:32.500Z,100516.53
2019-01-30T09:59:33.617Z,100517.53
2019-01-30T10:00:36.927Z,100519.34
2019-01-30T10:01:38.044Z,100522.53
2019-01-30T10:02:39.165Z,100519.86
2019-01-30T10:03:40.290Z,100522.02
2019-01-30T10:04:41.612Z,100527.54
2019-01-30T10:05:42.726Z,100522.53
2019-01-30T10:06:43.846Z,100521.67
2019-01-30T10:07:44.956Z,100525.69
2019-01-30T10:08:46.091Z,100523.53
2019-01-30T10:09:47.324Z,100520.51
2019-01-30T10:10:48.472Z,100516.84
2019-01-30T10:11:49.588Z,100523.19
2019-01-30T10:12:50.899Z,100524.86
2019-01-30T10:13:52.025Z,100521.20
2019-01-30T10:14:53.249Z,100522.53
2019-01-30T10:15:54.467Z,100524.70
2019-01-30T10:16:55.692Z,100524.55
2019-01-30T10:17:56.906Z,100529.05
2019-01-30T10:18:58.033Z,100526.72
2019-01-30T10:19:59.145Z,100521.88
2019-01-30T10:21:00.261Z,100530.25
2019-01-30T10:22:01.368Z,100522.23
2019-01-30T10:23:03.376Z,100523.56
2019-01-30T10:24:04.622Z,100528.27
2019-01-30T10:25:08.243Z,100530.94
2019-01-30T10:26:09.351Z,100533.95
2019-01-30T10:27:10.463Z,100531.28
2019-01-30T10:28:16.799Z,100535.64
2019-01-30T10:29:14.704Z,100539.14
2019-01-30T10:30:19.441Z,100545.34
2019-01-30T10:31:20.547Z,100542.67
2019-01-30T10:32:21.653Z,100544.35
2019-01-30T10:33:22.769Z,100544.35
2019-01-30T10:34:23.900Z,100541.67
2019-01-30T10:35:25.212Z,100542.02
2019-01-30T10:36:26.328Z,100541.50
2019-01-30T10:37:27.550Z,100542.36
2019-01-30T10:38:28.674Z,100547.72
2019-01-30T10:39:29.800Z,100548.88
2019-01-30T10:40:31.216Z,100548.41
2019-01-30T10:41:32.332Z,100551.42
2019-01-30T10:42:33.441Z,100552.76
2019-01-30T10:43:34.553Z,100553.58
2019-01-30T10:44:35.703Z,100551.42
2019-01-30T10:45:38.349Z,100550.08
2019-01-30T10:46:39.731Z,100553.10
2019-01-30T10:47:40.842Z,100553.92
2019-01-30T10:48:41.955Z,100553.45
2019-01-30T10:49:43.089Z,100547.58
2019-01-30T10:50:44.200Z,100553.79
2019-01-30T10:51:45.326Z,100544.77
2019-01-30T10:52:46.542Z,100537.22
2019-01-30T10:53:48.263Z,100543.44
2019-01-30T10:54:49.488Z,100548.27
2019-01-30T10:55:50.801Z,100548.27
2019-01-30T10:56:51.909Z,100543.77
2019-01-30T10:57:54.718Z,100539.76
2019-01-30T10:58:55.932Z,100544.12
2019-01-30T10:59:57.168Z,100536.09
2019-01-30T11:00:58.861Z,100536.60
2019-01-30T11:01:59.970Z,100538.28
2019-01-30T11:03:01.288Z,100542.78
2019-01-30T11:04:02.592Z,100543.13
2019-01-30T11:05:07.019Z,100539.28
2019-01-30T11:06:08.141Z,100541.44
2019-01-30T11:07:09.256Z,100538.28
2019-01-30T11:08:10.484Z,100539.97
2019-01-30T11:09:11.797Z,100540.10
2019-01-30T11:10:18.172Z,100535.09
2019-01-30T11:11:19.405Z,100536.44
2019-01-30T11:12:20.519Z,100540.45
2019-01-30T11:13:21.633Z,100537.63
2019-01-30T11:14:22.747Z,100538.11
2019-01-30T11:15:26.672Z,100542.98
2019-01-30T11:16:27.895Z,100539.31
2019-01-30T11:17:29.012Z,100535.78
2019-01-30T11:18:30.323Z,100539.66
2019-01-30T11:19:31.432Z,100551.70
2019-01-30T11:20:32.562Z,100546.83
2019-01-30T11:21:33.975Z,100552.05
2019-01-30T11:22:35.089Z,100557.88
2019-01-30T11:23:36.201Z,100552.69
2019-01-30T11:24:37.314Z,100557.88
2019-01-30T11:25:43.558Z,100551.36
2019-01-30T11:26:44.676Z,100554.72
2019-01-30T11:27:45.789Z,100555.55
2019-01-30T11:28:46.908Z,100547.17
2019-01-30T11:29:48.128Z,100548.51
2019-01-30T11:30:49.251Z,100549.02
2019-01-30T11:31:50.496Z,100551.19
2019-01-30T11:32:51.600Z,100548.51
2019-01-30T11:33:52.821Z,100552.52
2019-01-30T11:34:53.938Z,100550.84
2019-01-30T11:35:55.171Z,100547.69
2019-01-30T11:36:56.284Z,100551.19
2019-01-30T11:37:57.396Z,100555.20
2019-01-30T11:38:58.512Z,100552.87
2019-01-30T11:39:59.624Z,100551.53
2019-01-30T11:41:00.748Z,100552.87